Usu, China
Current Conditions -  °F | °C
As of 12:00 PM on Tuesday 21 Oct 2014 (Local Time) from ZWWW Reporting Station
Clear Clear  
Wind Chill: 70°   Ceiling: Unl
Heat Index: 70°   Visibility: 6mi
Dew Point: 32°   Wind: 2mph
Humidity: 25%   Direction: NA
Pressure: 30.03"   Gusts: NA
Location:  44.45°N, 84.62°E
Report Text: ZWWW 210400Z VRB01MPS CAVOK 21/M00 Q1017 NOSIG
Loading
Personal Weather Stations






























Interactive Weather Map
Tropical Storm Tracking
New forecast layout! Learn more

10-Day Weather Forecast

Advertisements
Track Severe Weather on mobile